createdAt,value
2018-01-28T00:00:14.238Z,94.98
2018-01-28T00:01:14.481Z,95.46
2018-01-28T00:02:14.470Z,94.89
2018-01-28T00:03:14.458Z,94.98
2018-01-28T00:04:14.451Z,94.98
2018-01-28T00:05:14.432Z,94.89
2018-01-28T00:06:14.423Z,94.89
2018-01-28T00:07:14.409Z,94.79
2018-01-28T00:08:14.402Z,95.08
2018-01-28T00:09:14.395Z,94.98
2018-01-28T00:10:14.388Z,94.98
2018-01-28T00:11:14.359Z,94.89
2018-01-28T00:12:14.353Z,95.36
2018-01-28T00:13:14.342Z,95.08
2018-01-28T00:14:14.338Z,95.17
2018-01-28T00:15:14.314Z,95.17
2018-01-28T00:16:14.305Z,94.79
2018-01-28T00:17:14.037Z,94.89
2018-01-28T00:18:14.278Z,94.89
2018-01-28T00:19:14.270Z,94.89
2018-01-28T00:20:14.254Z,94.98
2018-01-28T00:21:14.244Z,94.98
2018-01-28T00:22:14.229Z,95.17
2018-01-28T00:23:14.218Z,94.98
2018-01-28T00:24:14.209Z,95.17
2018-01-28T00:25:14.194Z,94.79
2018-01-28T00:26:14.180Z,94.89
2018-01-28T00:27:14.175Z,94.98
2018-01-28T00:28:13.906Z,94.98
2018-01-28T00:29:14.145Z,94.79
2018-01-28T00:30:14.150Z,94.79
2018-01-28T00:31:14.121Z,95.17
2018-01-28T00:32:14.118Z,94.98
2018-01-28T00:33:14.100Z,94.79
2018-01-28T00:34:13.833Z,94.51
2018-01-28T00:35:14.074Z,94.7
2018-01-28T00:36:13.809Z,94.42
2018-01-28T00:37:14.052Z,94.6
2018-01-28T00:38:14.037Z,94.7
2018-01-28T00:39:14.030Z,94.51
2018-01-28T00:40:14.014Z,94.51
2018-01-28T00:41:14.010Z,94.7
2018-01-28T00:42:13.996Z,94.7
2018-01-28T00:43:13.979Z,94.42
2018-01-28T00:44:13.971Z,94.51
2018-01-28T00:45:13.706Z,94.79
2018-01-28T00:46:13.691Z,94.6
2018-01-28T00:47:13.933Z,94.32
2018-01-28T00:48:13.925Z,94.23
2018-01-28T00:49:13.912Z,94.79
2018-01-28T00:50:13.902Z,94.79
2018-01-28T00:51:13.886Z,94.6
2018-01-28T00:52:13.621Z,94.7
2018-01-28T00:53:13.873Z,94.51
2018-01-28T00:54:13.597Z,94.79
2018-01-28T00:55:13.840Z,94.79
2018-01-28T00:56:13.829Z,94.23
2018-01-28T00:57:13.816Z,94.23
2018-01-28T00:58:13.804Z,94.6
2018-01-28T00:59:13.794Z,94.42
2018-01-28T01:00:13.779Z,94.23
2018-01-28T01:01:13.518Z,94.18
2018-01-28T01:02:13.755Z,94.6
2018-01-28T01:03:13.748Z,94.42
2018-01-28T01:04:13.735Z,94.23
2018-01-28T01:05:13.473Z,94.6
2018-01-28T01:06:13.708Z,94.23
2018-01-28T01:07:13.444Z,94.42
2018-01-28T01:08:13.693Z,94.23
2018-01-28T01:09:13.680Z,94.6
2018-01-28T01:10:13.669Z,94.18
2018-01-28T01:11:13.649Z,94.32
2018-01-28T01:12:13.638Z,94.13
2018-01-28T01:13:13.627Z,94.42
2018-01-28T01:14:13.616Z,94.42
2018-01-28T01:15:13.604Z,94.6
2018-01-28T01:16:13.349Z,93.75
2018-01-28T01:17:13.581Z,93.94
2018-01-28T01:18:13.580Z,94.51
2018-01-28T01:19:13.560Z,94.32
2018-01-28T01:20:13.294Z,94.46
2018-01-28T01:21:13.533Z,94.56
2018-01-28T01:22:13.521Z,94.42
2018-01-28T01:23:13.513Z,94.51
2018-01-28T01:24:13.500Z,94.51
2018-01-28T01:25:13.487Z,94.6
2018-01-28T01:26:13.482Z,93.7
2018-01-28T01:27:13.463Z,94.42
2018-01-28T01:28:13.454Z,94.42
2018-01-28T01:29:13.447Z,94.51
2018-01-28T01:30:13.176Z,94.51
2018-01-28T01:31:13.166Z,94.42
2018-01-28T01:32:13.154Z,94.51
2018-01-28T01:33:13.394Z,94.51
2018-01-28T01:34:13.386Z,93.56
2018-01-28T01:35:13.120Z,94.18
2018-01-28T01:36:13.363Z,94.42
2018-01-28T01:37:13.353Z,93.56
2018-01-28T01:38:13.337Z,94.23
2018-01-28T01:39:13.073Z,94.23
2018-01-28T01:40:13.318Z,94.46
2018-01-28T01:41:13.303Z,93.84
2018-01-28T01:42:13.289Z,93.99
2018-01-28T01:43:13.280Z,93.84
2018-01-28T01:44:13.265Z,93.94
2018-01-28T01:45:13.261Z,94.32
2018-01-28T01:46:13.245Z,93.99
2018-01-28T01:47:13.031Z,94.32
2018-01-28T01:48:13.224Z,94.56
2018-01-28T01:49:13.209Z,94.32
2018-01-28T01:50:13.200Z,94.42
2018-01-28T01:51:13.196Z,94.51
2018-01-28T01:52:13.180Z,94.37
2018-01-28T01:53:13.165Z,94.18
2018-01-28T01:54:13.155Z,94.08
2018-01-28T01:55:13.141Z,93.89
2018-01-28T01:56:13.128Z,93.89
2018-01-28T01:57:13.119Z,94.08
2018-01-28T01:58:13.109Z,94.18
2018-01-28T01:59:13.100Z,93.99
2018-01-28T02:00:13.083Z,93.99
2018-01-28T02:01:13.069Z,93.79
2018-01-28T02:02:13.061Z,93.6
2018-01-28T02:03:12.794Z,93.99
2018-01-28T02:04:13.035Z,94.18
2018-01-28T02:05:13.026Z,93.99
2018-01-28T02:06:12.759Z,93.89
2018-01-28T02:07:13.005Z,94.08
2018-01-28T02:08:12.989Z,93.79
2018-01-28T02:09:12.980Z,94.18
2018-01-28T02:10:12.968Z,93.79
2018-01-28T02:11:12.705Z,93.7
2018-01-28T02:12:12.944Z,93.7
2018-01-28T02:13:12.934Z,93.7
2018-01-28T02:14:12.920Z,93.6
2018-01-28T02:15:12.907Z,93.51
2018-01-28T02:16:12.901Z,93.6
2018-01-28T02:17:12.634Z,93.6
2018-01-28T02:18:12.955Z,93.79
2018-01-28T02:19:12.868Z,93.89
2018-01-28T02:20:12.850Z,93.7
2018-01-28T02:21:12.842Z,93.51
2018-01-28T02:22:12.826Z,93.51
2018-01-28T02:23:12.823Z,93.51
2018-01-28T02:24:12.803Z,93.6
2018-01-28T02:25:12.796Z,93.79
2018-01-28T02:26:12.781Z,93.6
2018-01-28T02:27:12.771Z,93.51
2018-01-28T02:28:12.767Z,93.79
2018-01-28T02:29:12.747Z,93.51
2018-01-28T02:30:12.744Z,93.51
2018-01-28T02:31:12.733Z,93.7
2018-01-28T02:32:12.716Z,93.79
2018-01-28T02:33:12.707Z,93.51
2018-01-28T02:34:12.751Z,93.04
2018-01-28T02:35:12.682Z,93.23
2018-01-28T02:36:12.685Z,93.32
2018-01-28T02:37:12.660Z,93.23
2018-01-28T02:38:12.648Z,93.41
2018-01-28T02:39:12.635Z,93.13
2018-01-28T02:40:12.373Z,92.75
2018-01-28T02:41:12.611Z,93.13
2018-01-28T02:42:12.602Z,93.32
2018-01-28T02:43:12.591Z,93.04
2018-01-28T02:44:12.579Z,92.75
2018-01-28T02:45:12.575Z,93.04
2018-01-28T02:46:12.554Z,93.23
2018-01-28T02:47:12.545Z,93.13
2018-01-28T02:48:12.530Z,93.13
2018-01-28T02:49:12.519Z,93.32
2018-01-28T02:50:12.513Z,93.32
2018-01-28T02:51:12.494Z,93.23
2018-01-28T02:52:12.487Z,93.32
2018-01-28T02:53:12.480Z,93.04
2018-01-28T02:54:12.463Z,93.13
2018-01-28T02:55:12.455Z,93.32
2018-01-28T02:56:12.445Z,93.04
2018-01-28T02:57:12.430Z,93.23
2018-01-28T02:58:12.417Z,93.13
2018-01-28T02:59:12.412Z,93.13
2018-01-28T03:00:12.396Z,92.85
2018-01-28T03:01:12.131Z,93.04
2018-01-28T03:02:12.123Z,93.23
2018-01-28T03:03:12.364Z,93.32
2018-01-28T03:04:12.357Z,93.04
2018-01-28T03:05:12.339Z,93.13
2018-01-28T03:06:12.328Z,93.6
2018-01-28T03:07:12.324Z,93.7
2018-01-28T03:08:12.051Z,93.51
2018-01-28T03:09:12.293Z,93.7
2018-01-28T03:10:12.029Z,93.89
2018-01-28T03:11:12.276Z,94.08
2018-01-28T03:12:12.260Z,94.27
2018-01-28T03:13:11.995Z,94.46
2018-01-28T03:14:12.235Z,94.56
2018-01-28T03:15:12.224Z,94.27
2018-01-28T03:16:11.961Z,94.27
2018-01-28T03:17:12.206Z,94.18
2018-01-28T03:18:12.240Z,94.18
2018-01-28T03:19:12.181Z,94.37
2018-01-28T03:20:12.171Z,94.37
2018-01-28T03:21:12.156Z,94.27
2018-01-28T03:22:12.148Z,94.37
2018-01-28T03:23:12.140Z,94.37
2018-01-28T03:24:12.125Z,94.46
2018-01-28T03:25:12.125Z,94.27
2018-01-28T03:26:12.104Z,94.27
2018-01-28T03:27:12.091Z,94.37
2018-01-28T03:28:12.082Z,94.18
2018-01-28T03:29:12.068Z,94.46
2018-01-28T03:30:12.067Z,94.18
2018-01-28T03:31:12.049Z,94.37
2018-01-28T03:32:12.031Z,94.27
2018-01-28T03:33:12.024Z,94.27
2018-01-28T03:34:12.022Z,94.27
2018-01-28T03:35:11.997Z,94.27
2018-01-28T03:36:11.988Z,94.37
2018-01-28T03:37:11.976Z,94.27
2018-01-28T03:38:11.963Z,94.37
2018-01-28T03:39:11.952Z,94.18
2018-01-28T03:40:11.689Z,94.56
2018-01-28T03:41:11.933Z,94.27
2018-01-28T03:42:11.919Z,94.08
2018-01-28T03:43:11.908Z,94.27
2018-01-28T03:44:11.949Z,94.27
2018-01-28T03:45:11.884Z,94.37
2018-01-28T03:46:11.876Z,94.08
2018-01-28T03:47:11.862Z,94.56
2018-01-28T03:48:11.864Z,94.37
2018-01-28T03:49:11.841Z,94.37
2018-01-28T03:50:11.827Z,94.18
2018-01-28T03:51:11.818Z,94.42
2018-01-28T03:52:11.805Z,94.56
2018-01-28T03:53:11.796Z,94.84
2018-01-28T03:54:11.782Z,94.93
2018-01-28T03:55:11.773Z,95.51
2018-01-28T03:56:11.763Z,95.51
2018-01-28T03:57:11.748Z,95.7
2018-01-28T03:58:11.768Z,95.79
2018-01-28T03:59:11.729Z,95.89
2018-01-28T04:00:11.715Z,95.98
2018-01-28T04:01:11.702Z,95.6
2018-01-28T04:02:11.697Z,95.51
2018-01-28T04:03:11.683Z,95.79
2018-01-28T04:04:11.674Z,95.51
2018-01-28T04:05:11.405Z,94.65
2018-01-28T04:06:11.647Z,95.03
2018-01-28T04:07:11.635Z,95.22
2018-01-28T04:08:11.623Z,94.74
2018-01-28T04:09:11.617Z,95.03
2018-01-28T04:10:11.601Z,94.74
2018-01-28T04:11:11.594Z,94.65
2018-01-28T04:12:11.581Z,95.03
2018-01-28T04:13:11.317Z,94.93
2018-01-28T04:14:11.306Z,94.93
2018-01-28T04:15:11.543Z,94.98
2018-01-28T04:16:11.282Z,94.93
2018-01-28T04:17:11.271Z,94.6
2018-01-28T04:18:11.512Z,95.08
2018-01-28T04:19:11.498Z,94.93
2018-01-28T04:20:11.493Z,94.7
2018-01-28T04:21:11.480Z,95.6
2018-01-28T04:22:11.468Z,95.75
2018-01-28T04:23:11.453Z,95.6
2018-01-28T04:24:11.444Z,95.32
2018-01-28T04:25:11.434Z,95.51
2018-01-28T04:26:11.420Z,95.51
2018-01-28T04:27:11.410Z,95.41
2018-01-28T04:28:11.399Z,95.65
2018-01-28T04:29:11.388Z,95.46
2018-01-28T04:30:11.378Z,96.03
2018-01-28T04:31:11.368Z,95.51
2018-01-28T04:32:11.358Z,95.6
2018-01-28T04:33:11.345Z,95.94
2018-01-28T04:34:11.331Z,96.03
2018-01-28T04:35:11.318Z,95.7
2018-01-28T04:36:11.309Z,95.41
2018-01-28T04:37:11.299Z,95.84
2018-01-28T04:38:11.032Z,95.46
2018-01-28T04:39:11.277Z,95.65
2018-01-28T04:40:11.265Z,95.84
2018-01-28T04:41:11.254Z,96.31
2018-01-28T04:42:11.243Z,96.22
2018-01-28T04:43:11.235Z,96.03
2018-01-28T04:44:11.220Z,96.26
2018-01-28T04:45:11.205Z,96.22
2018-01-28T04:46:11.196Z,96.84
2018-01-28T04:47:11.187Z,96.41
2018-01-28T04:48:11.174Z,96.26
2018-01-28T04:49:11.164Z,96.41
2018-01-28T04:50:11.153Z,96.03
2018-01-28T04:51:11.149Z,96.74
2018-01-28T04:52:11.125Z,96.55
2018-01-28T04:53:11.118Z,97.17
2018-01-28T04:54:11.107Z,97.45
2018-01-28T04:55:11.094Z,97.31
2018-01-28T04:56:11.085Z,97.83
2018-01-28T04:57:11.074Z,97.5
2018-01-28T04:58:11.064Z,97.36
2018-01-28T04:59:11.062Z,97.55
2018-01-28T05:00:11.043Z,97.88
2018-01-28T05:01:11.027Z,98.07
2018-01-28T05:02:11.020Z,98.07
2018-01-28T05:03:11.009Z,97.5
2018-01-28T05:04:10.994Z,97.5
2018-01-28T05:05:10.985Z,98.26
2018-01-28T05:06:10.726Z,98.17
2018-01-28T05:07:10.961Z,98.83
2018-01-28T05:08:10.695Z,98.45
2018-01-28T05:09:10.941Z,98.55
2018-01-28T05:10:10.926Z,98.55
2018-01-28T05:11:10.918Z,98.83
2018-01-28T05:12:10.903Z,99.3
2018-01-28T05:13:10.640Z,99.4
2018-01-28T05:14:10.902Z,98.93
2018-01-28T05:15:10.881Z,99.02
2018-01-28T05:16:10.861Z,98.93
2018-01-28T05:17:10.846Z,98.64
2018-01-28T05:18:10.591Z,98.83
2018-01-28T05:19:10.571Z,98.55
2018-01-28T05:20:10.561Z,98.36
2018-01-28T05:21:10.548Z,97.88
2018-01-28T05:22:10.538Z,98.17
2018-01-28T05:23:10.533Z,97.41
2018-01-28T05:24:10.769Z,97.97
2018-01-28T05:25:10.754Z,97.5
2018-01-28T05:26:10.744Z,97.41
2018-01-28T05:27:10.734Z,97.41
2018-01-28T05:28:10.467Z,97.22
2018-01-28T05:29:10.711Z,97.31
2018-01-28T05:30:10.700Z,97.5
2018-01-28T05:31:10.686Z,97.31
2018-01-28T05:32:10.686Z,97.31
2018-01-28T05:33:10.665Z,97.22
2018-01-28T05:34:10.652Z,97.12
2018-01-28T05:35:10.641Z,96.74
2018-01-28T05:36:10.634Z,97.12
2018-01-28T05:37:10.619Z,97.03
2018-01-28T05:38:10.610Z,96.74
2018-01-28T05:39:10.595Z,96.65
2018-01-28T05:40:10.585Z,96.74
2018-01-28T05:41:10.576Z,96.74
2018-01-28T05:42:10.309Z,97.03
2018-01-28T05:43:10.553Z,96.93
2018-01-28T05:44:10.543Z,96.55
2018-01-28T05:45:10.529Z,96.89
2018-01-28T05:46:10.518Z,96.65
2018-01-28T05:47:10.507Z,97.03
2018-01-28T05:48:10.499Z,97.12
2018-01-28T05:49:10.483Z,97.6
2018-01-28T05:50:10.472Z,97.41
2018-01-28T05:51:10.461Z,97.36
2018-01-28T05:52:10.449Z,97.27
2018-01-28T05:53:10.440Z,97.31
2018-01-28T05:54:10.434Z,97.17
2018-01-28T05:55:10.422Z,96.98
2018-01-28T05:56:10.404Z,97.17
2018-01-28T05:57:10.392Z,96.6
2018-01-28T05:58:10.383Z,96.6
2018-01-28T05:59:10.374Z,96.79
2018-01-28T06:00:10.359Z,97.08
2018-01-28T06:01:10.346Z,97.08
2018-01-28T06:02:10.337Z,96.6
2018-01-28T06:03:10.324Z,96.79
2018-01-28T06:04:10.312Z,96.98
2018-01-28T06:05:10.303Z,96.79
2018-01-28T06:06:10.292Z,96.89
2018-01-28T06:07:10.280Z,96.79
2018-01-28T06:08:10.267Z,96.98
2018-01-28T06:09:10.262Z,96.98
2018-01-28T06:10:10.245Z,96.69
2018-01-28T06:11:10.235Z,96.6
2018-01-28T06:12:09.970Z,96.79
2018-01-28T06:13:10.221Z,97.45
2018-01-28T06:14:09.949Z,97.08
2018-01-28T06:15:10.190Z,97.64
2018-01-28T06:16:09.928Z,97.55
2018-01-28T06:17:09.915Z,97.55
2018-01-28T06:18:10.158Z,98.12
2018-01-28T06:19:10.149Z,98.22
2018-01-28T06:20:10.135Z,98.31
2018-01-28T06:21:10.121Z,98.6
2018-01-28T06:22:10.110Z,97.83
2018-01-28T06:23:10.127Z,98.69
2018-01-28T06:24:10.163Z,98.97
2018-01-28T06:25:10.082Z,98.79
2018-01-28T06:26:10.065Z,98.69
2018-01-28T06:27:10.053Z,99.07
2018-01-28T06:28:09.790Z,99.11
2018-01-28T06:29:10.034Z,99.4
2018-01-28T06:30:10.026Z,99.21
2018-01-28T06:31:10.013Z,99.5
2018-01-28T06:32:10.000Z,99.3
2018-01-28T06:33:09.989Z,99.4
2018-01-28T06:34:09.979Z,98.83
2018-01-28T06:35:09.968Z,99.5
2018-01-28T06:36:09.956Z,99.02
2018-01-28T06:37:09.947Z,99.11
2018-01-28T06:38:09.932Z,99.02
2018-01-28T06:39:09.921Z,99.21
2018-01-28T06:40:09.910Z,98.83
2018-01-28T06:41:09.897Z,98.64
2018-01-28T06:42:09.636Z,98.55
2018-01-28T06:43:09.883Z,98.64
2018-01-28T06:44:09.864Z,98.64
2018-01-28T06:45:09.858Z,98.45
2018-01-28T06:46:09.846Z,98.36
2018-01-28T06:47:09.831Z,98.17
2018-01-28T06:48:09.565Z,98.17
2018-01-28T06:49:09.809Z,98.17
2018-01-28T06:50:09.804Z,98.17
2018-01-28T06:51:09.785Z,98.26
2018-01-28T06:52:09.519Z,98.17
2018-01-28T06:53:09.763Z,98.45
2018-01-28T06:54:09.755Z,98.55
2018-01-28T06:55:09.743Z,98.36
2018-01-28T06:56:09.473Z,98.55
2018-01-28T06:57:09.718Z,98.55
2018-01-28T06:58:09.703Z,98.45
2018-01-28T06:59:09.696Z,98.17
2018-01-28T07:00:09.682Z,97.88
2018-01-28T07:01:09.671Z,97.88
2018-01-28T07:02:09.661Z,97.97
2018-01-28T07:03:09.658Z,97.69
2018-01-28T07:04:09.638Z,97.97
2018-01-28T07:05:09.629Z,97.69
2018-01-28T07:06:09.614Z,97.5
2018-01-28T07:07:09.601Z,97.41
2018-01-28T07:08:09.337Z,97.6
2018-01-28T07:09:09.328Z,97.5
2018-01-28T07:10:09.613Z,97.41
2018-01-28T07:11:09.556Z,97.5
2018-01-28T07:12:09.550Z,97.6
2018-01-28T07:13:09.534Z,97.5
2018-01-28T07:14:09.519Z,97.6
2018-01-28T07:15:09.508Z,97.5
2018-01-28T07:16:09.245Z,97.41
2018-01-28T07:17:09.487Z,97.69
2018-01-28T07:18:09.222Z,97.31
2018-01-28T07:19:09.464Z,97.5
2018-01-28T07:20:09.458Z,97.69
2018-01-28T07:21:09.187Z,97.22
2018-01-28T07:22:09.428Z,97.5
2018-01-28T07:23:09.416Z,97.5
2018-01-28T07:24:09.408Z,97.69
2018-01-28T07:25:09.392Z,97.31
2018-01-28T07:26:09.380Z,97.12
2018-01-28T07:27:09.373Z,97.69
2018-01-28T07:28:09.107Z,97.78
2018-01-28T07:29:09.352Z,97.6
2018-01-28T07:30:09.338Z,97.69
2018-01-28T07:31:09.326Z,97.22
2018-01-28T07:32:09.312Z,97.31
2018-01-28T07:33:09.309Z,97.69
2018-01-28T07:34:09.294Z,97.69
2018-01-28T07:35:09.297Z,97.5
2018-01-28T07:36:09.268Z,97.6
2018-01-28T07:37:09.253Z,97.41
2018-01-28T07:38:09.243Z,97.41
2018-01-28T07:39:08.981Z,97.41
2018-01-28T07:40:08.967Z,97.6
2018-01-28T07:41:09.211Z,97.6
2018-01-28T07:42:09.197Z,97.5
2018-01-28T07:43:09.237Z,97.12
2018-01-28T07:44:09.175Z,97.03
2018-01-28T07:45:08.908Z,97.03
2018-01-28T07:46:09.156Z,96.45
2018-01-28T07:47:09.144Z,96.84
2018-01-28T07:48:09.126Z,96.65
2018-01-28T07:49:09.117Z,96.55
2018-01-28T07:50:09.105Z,96.74
2018-01-28T07:51:09.092Z,96.65
2018-01-28T07:52:09.080Z,96.93
2018-01-28T07:53:09.073Z,97.03
2018-01-28T07:54:09.059Z,96.74
2018-01-28T07:55:09.048Z,96.93
2018-01-28T07:56:08.782Z,96.93
2018-01-28T07:57:09.024Z,96.74
2018-01-28T07:58:08.760Z,96.65
2018-01-28T07:59:08.751Z,96.74
2018-01-28T08:00:08.996Z,96.74
2018-01-28T08:01:08.979Z,96.84
2018-01-28T08:02:08.969Z,97.12
2018-01-28T08:03:08.956Z,96.84
2018-01-28T08:04:08.948Z,96.84
2018-01-28T08:05:08.680Z,96.93
2018-01-28T08:06:08.670Z,96.84
2018-01-28T08:07:08.913Z,96.93
2018-01-28T08:08:08.906Z,96.84
2018-01-28T08:09:08.636Z,96.84
2018-01-28T08:10:08.878Z,96.93
2018-01-28T08:11:08.865Z,96.65
2018-01-28T08:12:08.856Z,96.93
2018-01-28T08:13:08.591Z,96.84
2018-01-28T08:14:08.832Z,96.93
2018-01-28T08:15:08.568Z,96.74
2018-01-28T08:16:08.556Z,96.98
2018-01-28T08:17:08.801Z,96.55
2018-01-28T08:18:08.789Z,97.03
2018-01-28T08:19:08.778Z,96.6
2018-01-28T08:20:08.510Z,96.6
2018-01-28T08:21:08.502Z,96.98
2018-01-28T08:22:08.491Z,96.89
2018-01-28T08:23:08.731Z,96.98
2018-01-28T08:24:08.719Z,96.69
2018-01-28T08:25:08.707Z,96.89
2018-01-28T08:26:08.443Z,96.41
2018-01-28T08:27:08.691Z,96.41
2018-01-28T08:28:08.434Z,96.12
2018-01-28T08:29:08.661Z,96.89
2018-01-28T08:30:08.402Z,96.31
2018-01-28T08:31:08.392Z,96.31
2018-01-28T08:32:08.630Z,96.12
2018-01-28T08:33:08.626Z,96.6
2018-01-28T08:34:08.354Z,96.41
2018-01-28T08:35:08.596Z,96.12
2018-01-28T08:36:08.584Z,96.12
2018-01-28T08:37:08.578Z,96.22
2018-01-28T08:38:08.563Z,96.12
2018-01-28T08:39:08.303Z,96.5
2018-01-28T08:40:08.541Z,95.75
2018-01-28T08:41:08.546Z,96.31
2018-01-28T08:42:08.519Z,96.22
2018-01-28T08:43:08.513Z,96.03
2018-01-28T08:44:08.504Z,95.94
2018-01-28T08:45:08.486Z,96.41
2018-01-28T08:46:08.220Z,96.41
2018-01-28T08:47:08.462Z,96.12
2018-01-28T08:48:08.455Z,95.84
2018-01-28T08:49:08.440Z,96.03
2018-01-28T08:50:08.177Z,96.41
2018-01-28T08:51:08.169Z,96.22
2018-01-28T08:52:08.412Z,96.03
2018-01-28T08:53:08.145Z,95.84
2018-01-28T08:54:08.388Z,96.31
2018-01-28T08:55:08.125Z,96.69
2018-01-28T08:56:08.367Z,96.41
2018-01-28T08:57:08.354Z,95.94
2018-01-28T08:58:08.093Z,96.03
2018-01-28T08:59:08.079Z,96.22
2018-01-28T09:00:08.324Z,96.41
2018-01-28T09:01:08.310Z,96.41
2018-01-28T09:02:08.301Z,95.84
2018-01-28T09:03:08.294Z,95.84
2018-01-28T09:04:08.025Z,95.84
2018-01-28T09:05:08.266Z,96.03
2018-01-28T09:06:08.254Z,96.03
2018-01-28T09:07:07.991Z,95.36
2018-01-28T09:08:07.982Z,95.94
2018-01-28T09:09:08.223Z,95.56
2018-01-28T09:10:08.214Z,95.94
2018-01-28T09:11:08.203Z,96.03
2018-01-28T09:12:08.191Z,96.03
2018-01-28T09:13:08.181Z,96.12
2018-01-28T09:14:08.172Z,95.98
2018-01-28T09:15:08.160Z,95.32
2018-01-28T09:16:08.148Z,95.79
2018-01-28T09:17:08.136Z,95.22
2018-01-28T09:18:07.873Z,95.51
2018-01-28T09:19:08.116Z,95.7
2018-01-28T09:20:08.108Z,95.32
2018-01-28T09:21:08.095Z,95.22
2018-01-28T09:22:07.833Z,95.51
2018-01-28T09:23:07.824Z,95.6
2018-01-28T09:24:08.064Z,95.46
2018-01-28T09:25:08.057Z,95.08
2018-01-28T09:26:08.062Z,94.89
2018-01-28T09:27:08.034Z,94.7
2018-01-28T09:28:07.770Z,94.98
2018-01-28T09:29:08.014Z,94.79
2018-01-28T09:30:08.002Z,94.32
2018-01-28T09:31:07.741Z,94.51
2018-01-28T09:32:07.988Z,94.51
2018-01-28T09:33:07.981Z,94.6
2018-01-28T09:34:07.711Z,94.6
2018-01-28T09:35:07.957Z,94.51
2018-01-28T09:36:07.691Z,94.51
2018-01-28T09:37:07.931Z,94.74
2018-01-28T09:38:07.925Z,94.74
2018-01-28T09:39:07.661Z,94.08
2018-01-28T09:40:07.903Z,93.98
2018-01-28T09:41:07.893Z,93.98
2018-01-28T09:42:07.884Z,94.27
2018-01-28T09:43:07.624Z,93.98
2018-01-28T09:44:07.614Z,93.89
2018-01-28T09:45:07.855Z,94.17
2018-01-28T09:46:07.600Z,93.98
2018-01-28T09:47:07.584Z,94.22
2018-01-28T09:48:07.839Z,93.84
2018-01-28T09:49:07.581Z,94.22
2018-01-28T09:50:07.811Z,93.46
2018-01-28T09:51:07.548Z,93.37
2018-01-28T09:52:07.798Z,93.65
2018-01-28T09:53:07.794Z,93.46
2018-01-28T09:54:07.523Z,93.74
2018-01-28T09:55:07.764Z,93.46
2018-01-28T09:56:07.755Z,93.32
2018-01-28T09:57:07.753Z,92.89
2018-01-28T09:58:07.742Z,93.27
2018-01-28T09:59:07.478Z,93.22
2018-01-28T10:00:07.719Z,93.41
2018-01-28T10:01:07.715Z,93.22
2018-01-28T10:02:07.702Z,93.32
2018-01-28T10:03:07.700Z,93.12
2018-01-28T10:04:07.433Z,92.65
2018-01-28T10:05:07.425Z,92.93
2018-01-28T10:06:07.414Z,92.69
2018-01-28T10:07:07.409Z,92.69
2018-01-28T10:08:07.662Z,92.69
2018-01-28T10:09:07.646Z,92.6
2018-01-28T10:10:07.633Z,92.79
2018-01-28T10:11:07.628Z,92.12
2018-01-28T10:12:07.619Z,92.41
2018-01-28T10:13:07.612Z,92.93
2018-01-28T10:14:07.349Z,92.46
2018-01-28T10:15:07.344Z,92.74
2018-01-28T10:16:07.589Z,92.69
2018-01-28T10:17:07.579Z,92.93
2018-01-28T10:18:07.575Z,92.27
2018-01-28T10:19:07.561Z,92.84
2018-01-28T10:20:07.554Z,92.84
2018-01-28T10:21:07.340Z,93.03
2018-01-28T10:22:07.547Z,93.12
2018-01-28T10:23:07.537Z,92.55
2018-01-28T10:24:07.266Z,93.12
2018-01-28T10:25:07.258Z,93.41
2018-01-28T10:26:07.500Z,93.12
2018-01-28T10:27:07.494Z,93.7
2018-01-28T10:28:07.233Z,94.03
2018-01-28T10:29:07.495Z,93.84
2018-01-28T10:30:07.468Z,93.93
2018-01-28T10:31:07.472Z,93.84
2018-01-28T10:32:07.197Z,94.03
2018-01-28T10:33:07.189Z,93.93
2018-01-28T10:34:07.440Z,94.13
2018-01-28T10:35:07.424Z,93.84
2018-01-28T10:36:07.415Z,93.93
2018-01-28T10:37:07.412Z,93.65
2018-01-28T10:38:07.147Z,93.84
2018-01-28T10:39:07.390Z,93.84
2018-01-28T10:40:07.384Z,93.93
2018-01-28T10:41:07.123Z,93.7
2018-01-28T10:42:07.363Z,93.93
2018-01-28T10:43:07.354Z,93.88
2018-01-28T10:44:07.348Z,93.88
2018-01-28T10:45:07.340Z,93.41
2018-01-28T10:46:07.332Z,93.41
2018-01-28T10:47:07.319Z,93.7
2018-01-28T10:48:07.311Z,92.55
2018-01-28T10:49:07.317Z,92.74
2018-01-28T10:50:07.301Z,92.93
2018-01-28T10:51:07.292Z,92.74
2018-01-28T10:52:07.279Z,93.32
2018-01-28T10:53:07.267Z,93.12
2018-01-28T10:54:07.276Z,92.93
2018-01-28T10:55:07.265Z,92.93
2018-01-28T10:56:07.254Z,92.84
2018-01-28T10:57:07.241Z,92.74
2018-01-28T10:58:07.646Z,92.65
2018-01-28T10:59:07.222Z,92.74
2018-01-28T11:00:07.212Z,92.65
2018-01-28T11:01:07.208Z,92.74
2018-01-28T11:02:07.189Z,92.65
2018-01-28T11:03:07.183Z,92.84
2018-01-28T11:04:07.176Z,92.93
2018-01-28T11:05:07.167Z,92.74
2018-01-28T11:06:06.907Z,93.03
2018-01-28T11:07:07.151Z,92.46
2018-01-28T11:08:07.138Z,92.74
2018-01-28T11:09:07.130Z,93.12
2018-01-28T11:10:07.122Z,92.74
2018-01-28T11:11:06.863Z,93.03
2018-01-28T11:12:07.105Z,93.03
2018-01-28T11:13:06.846Z,92.93
2018-01-28T11:14:07.092Z,92.46
2018-01-28T11:15:07.080Z,92.74
2018-01-28T11:16:07.075Z,92.84
2018-01-28T11:17:07.065Z,92.27
2018-01-28T11:18:07.061Z,92.27
2018-01-28T11:19:07.044Z,92.17
2018-01-28T11:20:07.247Z,92.55
2018-01-28T11:21:07.034Z,92.17
2018-01-28T11:22:07.024Z,92.36
2018-01-28T11:23:07.011Z,92.84
2018-01-28T11:24:07.004Z,92.55
2018-01-28T11:25:07.000Z,92.79
2018-01-28T11:26:06.991Z,92.27
2018-01-28T11:27:06.982Z,92.84
2018-01-28T11:28:06.719Z,92.84
2018-01-28T11:29:06.710Z,92.65
2018-01-28T11:30:06.699Z,92.74
2018-01-28T11:31:06.949Z,92.74
2018-01-28T11:32:06.686Z,92.65
2018-01-28T11:33:06.929Z,92.74
2018-01-28T11:34:06.920Z,92.74
2018-01-28T11:35:06.914Z,93.12
2018-01-28T11:36:06.901Z,93.51
2018-01-28T11:37:06.894Z,92.55
2018-01-28T11:38:06.890Z,92.36
2018-01-28T11:39:06.880Z,93.12
2018-01-28T11:40:06.870Z,93.22
2018-01-28T11:41:06.862Z,93.41
2018-01-28T11:42:06.859Z,93.51
2018-01-28T11:43:07.264Z,93.51
2018-01-28T11:44:06.833Z,93.51
2018-01-28T11:45:06.826Z,93.51
2018-01-28T11:46:06.815Z,93.03
2018-01-28T11:47:06.805Z,93.12
2018-01-28T11:48:06.546Z,93.03
2018-01-28T11:49:06.537Z,93.22
2018-01-28T11:50:06.528Z,93.32
2018-01-28T11:51:06.522Z,93.79
2018-01-28T11:52:06.767Z,93.41
2018-01-28T11:53:06.760Z,93.6
2018-01-28T11:54:06.762Z,93.79
2018-01-28T11:55:06.742Z,93.51
2018-01-28T11:56:06.746Z,93.41
2018-01-28T11:57:06.731Z,93.51
2018-01-28T11:58:06.738Z,93.12
2018-01-28T11:59:06.454Z,93.32
2018-01-28T12:00:06.720Z,93.6
2018-01-28T12:01:06.687Z,93.03
2018-01-28T12:02:06.677Z,93.6
2018-01-28T12:03:06.677Z,93.51
2018-01-28T12:04:06.660Z,93.12
2018-01-28T12:05:06.684Z,93.12
2018-01-28T12:06:06.391Z,93.41
2018-01-28T12:07:06.643Z,93.98
2018-01-28T12:08:06.624Z,94.32
2018-01-28T12:09:06.375Z,94.41
2018-01-28T12:10:06.606Z,94.98
2018-01-28T12:11:06.602Z,94.98
2018-01-28T12:12:06.340Z,96.03
2018-01-28T12:13:06.592Z,96.12
2018-01-28T12:14:06.336Z,96.12
2018-01-28T12:15:06.567Z,97.17
2018-01-28T12:16:06.304Z,97.65
2018-01-28T12:17:06.299Z,97.94
2018-01-28T12:18:06.536Z,97.75
2018-01-28T12:19:06.529Z,97.65
2018-01-28T12:20:06.518Z,97.79
2018-01-28T12:21:06.258Z,97.99
2018-01-28T12:22:06.514Z,97.79
2018-01-28T12:23:06.240Z,97.6
2018-01-28T12:24:06.491Z,98.03
2018-01-28T12:25:06.481Z,97.51
2018-01-28T12:26:06.479Z,97.13
2018-01-28T12:27:06.459Z,96.98
2018-01-28T12:28:06.447Z,96.8
2018-01-28T12:29:06.448Z,97.08
2018-01-28T12:30:06.430Z,96.8
2018-01-28T12:31:06.418Z,96.03
2018-01-28T12:32:06.411Z,96.6
2018-01-28T12:33:06.406Z,96.6
2018-01-28T12:34:06.424Z,96.03
2018-01-28T12:35:06.385Z,96.03
2018-01-28T12:36:06.405Z,95.84
2018-01-28T12:37:06.368Z,95.84
2018-01-28T12:38:06.355Z,96.12
2018-01-28T12:39:06.098Z,95.65
2018-01-28T12:40:06.084Z,96.12
2018-01-28T12:41:06.079Z,96.12
2018-01-28T12:42:06.326Z,96.51
2018-01-28T12:43:06.329Z,96.32
2018-01-28T12:44:06.302Z,96.8
2018-01-28T12:45:06.292Z,96.51
2018-01-28T12:46:06.283Z,96.55
2018-01-28T12:47:06.277Z,96.55
2018-01-28T12:48:06.264Z,96.36
2018-01-28T12:49:06.006Z,96.03
2018-01-28T12:50:05.997Z,96.32
2018-01-28T12:51:06.240Z,96.03
2018-01-28T12:52:06.243Z,96.22
2018-01-28T12:53:06.223Z,96.03
2018-01-28T12:54:06.213Z,95.75
2018-01-28T12:55:06.200Z,95.65